sensor_id;sensor_type;location;lat;lon;timestamp;P1;durP1;ratioP1;P2;durP2;ratioP2
12880;SDS011;6508;53.786;9.996;2023-06-26T00:00:06;6.72;;;6.32;;
12880;SDS011;6508;53.786;9.996;2023-06-26T00:02:35;6.68;;;6.15;;
12880;SDS011;6508;53.786;9.996;2023-06-26T00:05:03;6.60;;;6.20;;
12880;SDS011;6508;53.786;9.996;2023-06-26T00:07:33;7.32;;;6.72;;
12880;SDS011;6508;53.786;9.996;2023-06-26T00:10:02;6.97;;;6.38;;
12880;SDS011;6508;53.786;9.996;2023-06-26T00:12:32;6.97;;;6.38;;
12880;SDS011;6508;53.786;9.996;2023-06-26T00:15:02;6.60;;;6.10;;
12880;SDS011;6508;53.786;9.996;2023-06-26T00:17:31;6.90;;;6.40;;
12880;SDS011;6508;53.786;9.996;2023-06-26T00:20:03;7.03;;;6.53;;
12880;SDS011;6508;53.786;9.996;2023-06-26T00:22:37;7.30;;;6.72;;
12880;SDS011;6508;53.786;9.996;2023-06-26T00:25:07;7.22;;;6.63;;
12880;SDS011;6508;53.786;9.996;2023-06-26T00:27:37;7.55;;;6.85;;
12880;SDS011;6508;53.786;9.996;2023-06-26T00:30:05;7.28;;;6.78;;
12880;SDS011;6508;53.786;9.996;2023-06-26T00:32:34;7.20;;;6.70;;
12880;SDS011;6508;53.786;9.996;2023-06-26T00:35:04;7.30;;;6.80;;
12880;SDS011;6508;53.786;9.996;2023-06-26T00:37:32;7.93;;;7.20;;
12880;SDS011;6508;53.786;9.996;2023-06-26T00:40:00;7.50;;;6.90;;
12880;SDS011;6508;53.786;9.996;2023-06-26T00:42:29;8.40;;;7.70;;
12880;SDS011;6508;53.786;9.996;2023-06-26T00:44:59;8.35;;;7.55;;
12880;SDS011;6508;53.786;9.996;2023-06-26T00:47:27;8.55;;;7.85;;
12880;SDS011;6508;53.786;9.996;2023-06-26T00:49:56;8.45;;;7.85;;
12880;SDS011;6508;53.786;9.996;2023-06-26T00:52:25;8.27;;;7.68;;
12880;SDS011;6508;53.786;9.996;2023-06-26T00:54:53;8.07;;;7.47;;
12880;SDS011;6508;53.786;9.996;2023-06-26T00:57:21;8.70;;;8.05;;
12880;SDS011;6508;53.786;9.996;2023-06-26T00:59:49;9.65;;;8.77;;
12880;SDS011;6508;53.786;9.996;2023-06-26T01:02:21;9.60;;;8.48;;
12880;SDS011;6508;53.786;9.996;2023-06-26T01:04:50;8.85;;;8.18;;
12880;SDS011;6508;53.786;9.996;2023-06-26T01:07:19;9.55;;;8.70;;
12880;SDS011;6508;53.786;9.996;2023-06-26T01:09:48;9.02;;;8.32;;
12880;SDS011;6508;53.786;9.996;2023-06-26T01:12:17;10.00;;;9.10;;
12880;SDS011;6508;53.786;9.996;2023-06-26T01:14:47;10.43;;;9.52;;
12880;SDS011;6508;53.786;9.996;2023-06-26T01:17:16;9.48;;;8.55;;
12880;SDS011;6508;53.786;9.996;2023-06-26T01:19:46;10.13;;;8.80;;
12880;SDS011;6508;53.786;9.996;2023-06-26T01:22:16;9.80;;;9.00;;
12880;SDS011;6508;53.786;9.996;2023-06-26T01:24:51;9.85;;;8.95;;
12880;SDS011;6508;53.786;9.996;2023-06-26T01:27:26;9.88;;;9.07;;
12880;SDS011;6508;53.786;9.996;2023-06-26T01:29:54;9.95;;;9.15;;
12880;SDS011;6508;53.786;9.996;2023-06-26T01:32:23;10.90;;;10.00;;
12880;SDS011;6508;53.786;9.996;2023-06-26T01:34:53;10.18;;;9.38;;
12880;SDS011;6508;53.786;9.996;2023-06-26T01:37:20;10.27;;;9.45;;
12880;SDS011;6508;53.786;9.996;2023-06-26T01:39:48;11.32;;;10.32;;
12880;SDS011;6508;53.786;9.996;2023-06-26T01:42:17;10.68;;;9.77;;
12880;SDS011;6508;53.786;9.996;2023-06-26T01:44:47;10.85;;;10.05;;
12880;SDS011;6508;53.786;9.996;2023-06-26T01:47:16;11.57;;;10.57;;
12880;SDS011;6508;53.786;9.996;2023-06-26T01:49:46;11.75;;;10.68;;
12880;SDS011;6508;53.786;9.996;2023-06-26T01:52:19;11.15;;;10.15;;
12880;SDS011;6508;53.786;9.996;2023-06-26T01:54:52;11.70;;;10.68;;
12880;SDS011;6508;53.786;9.996;2023-06-26T01:57:25;11.73;;;10.73;;
12880;SDS011;6508;53.786;9.996;2023-06-26T01:59:56;11.93;;;11.02;;
12880;SDS011;6508;53.786;9.996;2023-06-26T02:02:25;11.80;;;10.90;;
12880;SDS011;6508;53.786;9.996;2023-06-26T02:04:53;11.68;;;10.77;;
12880;SDS011;6508;53.786;9.996;2023-06-26T02:07:22;11.85;;;10.95;;
12880;SDS011;6508;53.786;9.996;2023-06-26T02:09:50;12.05;;;10.85;;
12880;SDS011;6508;53.786;9.996;2023-06-26T02:12:18;12.35;;;11.30;;
12880;SDS011;6508;53.786;9.996;2023-06-26T02:14:46;12.25;;;11.15;;
12880;SDS011;6508;53.786;9.996;2023-06-26T02:17:15;12.02;;;10.98;;
12880;SDS011;6508;53.786;9.996;2023-06-26T02:19:43;11.60;;;10.63;;
12880;SDS011;6508;53.786;9.996;2023-06-26T02:22:14;12.23;;;11.18;;
12880;SDS011;6508;53.786;9.996;2023-06-26T02:24:42;11.15;;;10.30;;
12880;SDS011;6508;53.786;9.996;2023-06-26T02:27:10;12.25;;;11.23;;
12880;SDS011;6508;53.786;9.996;2023-06-26T02:29:38;12.57;;;11.57;;
12880;SDS011;6508;53.786;9.996;2023-06-26T02:32:07;11.55;;;10.65;;
12880;SDS011;6508;53.786;9.996;2023-06-26T02:34:36;12.25;;;11.23;;
12880;SDS011;6508;53.786;9.996;2023-06-26T02:37:04;12.65;;;11.48;;
12880;SDS011;6508;53.786;9.996;2023-06-26T02:39:33;12.20;;;11.20;;
12880;SDS011;6508;53.786;9.996;2023-06-26T02:42:02;12.93;;;11.75;;
12880;SDS011;6508;53.786;9.996;2023-06-26T02:44:31;12.45;;;11.35;;
12880;SDS011;6508;53.786;9.996;2023-06-26T02:46:59;12.73;;;11.65;;
12880;SDS011;6508;53.786;9.996;2023-06-26T02:49:27;12.18;;;11.07;;
12880;SDS011;6508;53.786;9.996;2023-06-26T02:51:57;12.60;;;11.40;;
12880;SDS011;6508;53.786;9.996;2023-06-26T02:54:27;11.63;;;10.73;;
12880;SDS011;6508;53.786;9.996;2023-06-26T02:57:01;11.77;;;10.77;;
12880;SDS011;6508;53.786;9.996;2023-06-26T02:59:30;12.55;;;11.35;;
12880;SDS011;6508;53.786;9.996;2023-06-26T03:01:58;12.73;;;11.63;;
12880;SDS011;6508;53.786;9.996;2023-06-26T03:04:36;12.15;;;11.15;;
12880;SDS011;6508;53.786;9.996;2023-06-26T03:07:09;12.38;;;11.38;;
12880;SDS011;6508;53.786;9.996;2023-06-26T03:09:38;12.63;;;11.43;;
12880;SDS011;6508;53.786;9.996;2023-06-26T03:12:07;11.70;;;10.80;;
12880;SDS011;6508;53.786;9.996;2023-06-26T03:14:36;12.32;;;11.38;;
12880;SDS011;6508;53.786;9.996;2023-06-26T03:17:04;11.68;;;10.68;;
12880;SDS011;6508;53.786;9.996;2023-06-26T03:19:35;12.40;;;11.40;;
12880;SDS011;6508;53.786;9.996;2023-06-26T03:22:22;11.52;;;10.63;;
12880;SDS011;6508;53.786;9.996;2023-06-26T03:24:50;11.90;;;10.90;;
12880;SDS011;6508;53.786;9.996;2023-06-26T03:27:18;11.88;;;10.85;;
12880;SDS011;6508;53.786;9.996;2023-06-26T03:29:48;12.15;;;10.98;;
12880;SDS011;6508;53.786;9.996;2023-06-26T03:32:17;12.73;;;11.68;;
12880;SDS011;6508;53.786;9.996;2023-06-26T03:34:46;12.20;;;11.13;;
12880;SDS011;6508;53.786;9.996;2023-06-26T03:37:14;11.73;;;10.68;;
12880;SDS011;6508;53.786;9.996;2023-06-26T03:39:44;12.13;;;11.13;;
12880;SDS011;6508;53.786;9.996;2023-06-26T03:42:12;14.35;;;11.05;;
12880;SDS011;6508;53.786;9.996;2023-06-26T03:44:40;11.15;;;10.35;;
12880;SDS011;6508;53.786;9.996;2023-06-26T03:47:08;11.63;;;10.60;;
12880;SDS011;6508;53.786;9.996;2023-06-26T03:49:36;11.82;;;10.82;;
12880;SDS011;6508;53.786;9.996;2023-06-26T03:52:04;11.50;;;10.60;;
12880;SDS011;6508;53.786;9.996;2023-06-26T03:54:33;11.27;;;10.38;;
12880;SDS011;6508;53.786;9.996;2023-06-26T03:57:02;10.73;;;9.93;;
12880;SDS011;6508;53.786;9.996;2023-06-26T03:59:30;10.90;;;10.10;;
12880;SDS011;6508;53.786;9.996;2023-06-26T04:01:58;11.80;;;10.90;;
12880;SDS011;6508;53.786;9.996;2023-06-26T04:04:26;10.77;;;9.98;;
12880;SDS011;6508;53.786;9.996;2023-06-26T04:06:54;11.05;;;10.18;;
12880;SDS011;6508;53.786;9.996;2023-06-26T04:09:23;11.05;;;10.07;;
12880;SDS011;6508;53.786;9.996;2023-06-26T04:11:51;11.52;;;10.63;;
12880;SDS011;6508;53.786;9.996;2023-06-26T04:14:20;10.27;;;9.57;;
12880;SDS011;6508;53.786;9.996;2023-06-26T04:16:48;10.32;;;9.52;;
12880;SDS011;6508;53.786;9.996;2023-06-26T04:19:16;11.32;;;10.43;;
12880;SDS011;6508;53.786;9.996;2023-06-26T04:21:44;10.30;;;9.60;;
12880;SDS011;6508;53.786;9.996;2023-06-26T04:24:11;10.52;;;9.70;;
12880;SDS011;6508;53.786;9.996;2023-06-26T04:26:42;10.70;;;9.90;;
12880;SDS011;6508;53.786;9.996;2023-06-26T04:29:12;11.55;;;10.55;;
12880;SDS011;6508;53.786;9.996;2023-06-26T04:31:41;11.35;;;10.40;;
12880;SDS011;6508;53.786;9.996;2023-06-26T04:34:13;10.32;;;9.52;;
12880;SDS011;6508;53.786;9.996;2023-06-26T04:36:41;12.85;;;9.88;;
12880;SDS011;6508;53.786;9.996;2023-06-26T04:39:13;10.07;;;9.23;;
12880;SDS011;6508;53.786;9.996;2023-06-26T04:41:41;10.00;;;9.13;;
12880;SDS011;6508;53.786;9.996;2023-06-26T04:44:09;10.15;;;9.35;;
12880;SDS011;6508;53.786;9.996;2023-06-26T04:46:37;10.30;;;9.60;;
12880;SDS011;6508;53.786;9.996;2023-06-26T04:49:10;9.85;;;9.10;;
12880;SDS011;6508;53.786;9.996;2023-06-26T04:51:38;10.50;;;9.70;;
12880;SDS011;6508;53.786;9.996;2023-06-26T04:54:07;9.73;;;9.10;;
12880;SDS011;6508;53.786;9.996;2023-06-26T04:56:35;9.75;;;9.02;;
12880;SDS011;6508;53.786;9.996;2023-06-26T04:59:05;10.02;;;9.13;;
12880;SDS011;6508;53.786;9.996;2023-06-26T05:01:33;9.80;;;9.10;;
12880;SDS011;6508;53.786;9.996;2023-06-26T05:04:06;9.70;;;9.00;;
12880;SDS011;6508;53.786;9.996;2023-06-26T05:06:36;9.85;;;9.05;;
12880;SDS011;6508;53.786;9.996;2023-06-26T05:09:04;8.88;;;8.27;;
12880;SDS011;6508;53.786;9.996;2023-06-26T05:11:32;9.43;;;8.73;;
12880;SDS011;6508;53.786;9.996;2023-06-26T05:14:00;8.95;;;8.25;;
12880;SDS011;6508;53.786;9.996;2023-06-26T05:16:28;8.98;;;8.35;;
12880;SDS011;6508;53.786;9.996;2023-06-26T05:18:56;8.15;;;7.63;;
12880;SDS011;6508;53.786;9.996;2023-06-26T05:21:24;8.70;;;8.00;;
12880;SDS011;6508;53.786;9.996;2023-06-26T05:23:53;7.50;;;7.07;;
12880;SDS011;6508;53.786;9.996;2023-06-26T05:26:24;8.13;;;7.40;;
12880;SDS011;6508;53.786;9.996;2023-06-26T05:28:52;7.75;;;7.25;;
12880;SDS011;6508;53.786;9.996;2023-06-26T05:31:21;7.93;;;7.32;;
12880;SDS011;6508;53.786;9.996;2023-06-26T05:33:50;7.68;;;7.18;;
12880;SDS011;6508;53.786;9.996;2023-06-26T05:36:21;7.30;;;6.80;;
12880;SDS011;6508;53.786;9.996;2023-06-26T05:38:50;7.18;;;6.68;;
12880;SDS011;6508;53.786;9.996;2023-06-26T05:41:20;7.10;;;6.60;;
12880;SDS011;6508;53.786;9.996;2023-06-26T05:43:48;7.57;;;7.10;;
12880;SDS011;6508;53.786;9.996;2023-06-26T05:46:16;7.57;;;6.95;;
12880;SDS011;6508;53.786;9.996;2023-06-26T05:48:44;6.82;;;6.32;;
12880;SDS011;6508;53.786;9.996;2023-06-26T05:51:12;7.15;;;6.47;;
12880;SDS011;6508;53.786;9.996;2023-06-26T05:53:40;7.63;;;7.03;;
12880;SDS011;6508;53.786;9.996;2023-06-26T05:56:09;7.40;;;6.80;;
12880;SDS011;6508;53.786;9.996;2023-06-26T05:58:39;7.15;;;6.75;;
12880;SDS011;6508;53.786;9.996;2023-06-26T06:01:08;7.15;;;6.55;;
12880;SDS011;6508;53.786;9.996;2023-06-26T06:03:36;7.47;;;6.88;;
12880;SDS011;6508;53.786;9.996;2023-06-26T06:06:04;7.38;;;6.82;;
12880;SDS011;6508;53.786;9.996;2023-06-26T06:08:32;6.75;;;6.35;;
12880;SDS011;6508;53.786;9.996;2023-06-26T06:11:00;7.13;;;6.60;;
12880;SDS011;6508;53.786;9.996;2023-06-26T06:13:28;6.90;;;6.10;;
12880;SDS011;6508;53.786;9.996;2023-06-26T06:15:57;6.72;;;6.32;;
12880;SDS011;6508;53.786;9.996;2023-06-26T06:18:26;6.45;;;6.10;;
12880;SDS011;6508;53.786;9.996;2023-06-26T06:20:54;6.82;;;6.32;;
12880;SDS011;6508;53.786;9.996;2023-06-26T06:23:21;6.97;;;6.38;;
12880;SDS011;6508;53.786;9.996;2023-06-26T06:25:51;6.88;;;6.30;;
12880;SDS011;6508;53.786;9.996;2023-06-26T06:28:19;6.70;;;6.30;;
12880;SDS011;6508;53.786;9.996;2023-06-26T06:30:47;7.68;;;6.97;;
12880;SDS011;6508;53.786;9.996;2023-06-26T06:33:17;6.82;;;6.43;;
12880;SDS011;6508;53.786;9.996;2023-06-26T06:35:45;6.55;;;6.15;;
12880;SDS011;6508;53.786;9.996;2023-06-26T06:38:13;7.03;;;6.53;;
12880;SDS011;6508;53.786;9.996;2023-06-26T06:40:40;6.30;;;5.90;;
12880;SDS011;6508;53.786;9.996;2023-06-26T06:43:08;6.97;;;6.40;;
12880;SDS011;6508;53.786;9.996;2023-06-26T06:45:36;6.50;;;5.93;;
12880;SDS011;6508;53.786;9.996;2023-06-26T06:48:05;6.80;;;6.18;;
12880;SDS011;6508;53.786;9.996;2023-06-26T06:50:34;7.18;;;6.68;;
12880;SDS011;6508;53.786;9.996;2023-06-26T06:53:02;7.68;;;7.18;;
12880;SDS011;6508;53.786;9.996;2023-06-26T06:55:30;7.00;;;6.60;;
12880;SDS011;6508;53.786;9.996;2023-06-26T06:57:58;6.00;;;5.70;;
12880;SDS011;6508;53.786;9.996;2023-06-26T07:00:27;7.03;;;6.43;;
12880;SDS011;6508;53.786;9.996;2023-06-26T07:02:55;6.70;;;6.30;;
12880;SDS011;6508;53.786;9.996;2023-06-26T07:05:23;6.72;;;6.32;;
12880;SDS011;6508;53.786;9.996;2023-06-26T07:07:52;6.18;;;5.78;;
12880;SDS011;6508;53.786;9.996;2023-06-26T07:10:20;6.75;;;6.07;;
12880;SDS011;6508;53.786;9.996;2023-06-26T07:12:48;6.55;;;6.18;;
12880;SDS011;6508;53.786;9.996;2023-06-26T07:15:16;6.95;;;6.55;;
12880;SDS011;6508;53.786;9.996;2023-06-26T07:17:44;6.65;;;6.25;;
12880;SDS011;6508;53.786;9.996;2023-06-26T07:20:12;7.05;;;6.55;;
12880;SDS011;6508;53.786;9.996;2023-06-26T07:22:42;6.88;;;6.38;;
12880;SDS011;6508;53.786;9.996;2023-06-26T07:25:13;6.45;;;6.15;;
12880;SDS011;6508;53.786;9.996;2023-06-26T07:27:41;6.60;;;6.20;;
12880;SDS011;6508;53.786;9.996;2023-06-26T07:30:09;6.65;;;6.25;;
12880;SDS011;6508;53.786;9.996;2023-06-26T07:32:38;7.05;;;6.65;;
12880;SDS011;6508;53.786;9.996;2023-06-26T07:35:08;7.20;;;6.50;;
12880;SDS011;6508;53.786;9.996;2023-06-26T07:37:36;6.63;;;6.22;;
12880;SDS011;6508;53.786;9.996;2023-06-26T07:40:05;7.30;;;6.80;;
12880;SDS011;6508;53.786;9.996;2023-06-26T07:42:34;6.47;;;6.13;;
12880;SDS011;6508;53.786;9.996;2023-06-26T07:45:02;6.97;;;6.57;;
12880;SDS011;6508;53.786;9.996;2023-06-26T07:47:36;7.43;;;6.97;;
12880;SDS011;6508;53.786;9.996;2023-06-26T07:50:04;7.00;;;6.60;;
12880;SDS011;6508;53.786;9.996;2023-06-26T07:52:32;6.80;;;6.40;;
12880;SDS011;6508;53.786;9.996;2023-06-26T07:55:00;6.53;;;6.13;;
12880;SDS011;6508;53.786;9.996;2023-06-26T07:57:30;7.30;;;6.80;;
12880;SDS011;6508;53.786;9.996;2023-06-26T08:00:00;7.47;;;6.97;;
12880;SDS011;6508;53.786;9.996;2023-06-26T08:02:28;6.88;;;6.20;;
12880;SDS011;6508;53.786;9.996;2023-06-26T08:04:56;6.68;;;6.20;;
12880;SDS011;6508;53.786;9.996;2023-06-26T08:07:24;7.70;;;7.20;;
12880;SDS011;6508;53.786;9.996;2023-06-26T08:09:52;8.15;;;7.50;;
12880;SDS011;6508;53.786;9.996;2023-06-26T08:12:21;8.02;;;7.35;;
12880;SDS011;6508;53.786;9.996;2023-06-26T08:14:49;7.60;;;6.90;;
12880;SDS011;6508;53.786;9.996;2023-06-26T08:17:18;7.13;;;6.72;;
12880;SDS011;6508;53.786;9.996;2023-06-26T08:19:46;7.60;;;7.10;;
12880;SDS011;6508;53.786;9.996;2023-06-26T08:22:14;7.30;;;6.88;;
12880;SDS011;6508;53.786;9.996;2023-06-26T08:24:42;7.22;;;6.82;;
12880;SDS011;6508;53.786;9.996;2023-06-26T08:27:10;7.72;;;7.18;;
12880;SDS011;6508;53.786;9.996;2023-06-26T08:29:37;7.22;;;6.72;;
12880;SDS011;6508;53.786;9.996;2023-06-26T08:32:06;7.90;;;7.30;;
12880;SDS011;6508;53.786;9.996;2023-06-26T08:34:35;7.45;;;7.05;;
12880;SDS011;6508;53.786;9.996;2023-06-26T08:37:03;7.70;;;7.20;;
12880;SDS011;6508;53.786;9.996;2023-06-26T08:39:35;8.23;;;7.43;;
12880;SDS011;6508;53.786;9.996;2023-06-26T08:42:03;7.90;;;7.50;;
12880;SDS011;6508;53.786;9.996;2023-06-26T08:44:32;8.52;;;7.75;;
12880;SDS011;6508;53.786;9.996;2023-06-26T08:47:01;8.00;;;7.50;;
12880;SDS011;6508;53.786;9.996;2023-06-26T08:49:34;7.68;;;7.18;;
12880;SDS011;6508;53.786;9.996;2023-06-26T08:52:10;8.20;;;7.70;;
12880;SDS011;6508;53.786;9.996;2023-06-26T08:54:43;7.63;;;7.22;;
12880;SDS011;6508;53.786;9.996;2023-06-26T08:57:15;7.85;;;7.25;;
12880;SDS011;6508;53.786;9.996;2023-06-26T08:59:46;7.30;;;6.80;;
12880;SDS011;6508;53.786;9.996;2023-06-26T09:02:15;7.80;;;7.30;;
12880;SDS011;6508;53.786;9.996;2023-06-26T09:04:44;6.93;;;6.53;;
12880;SDS011;6508;53.786;9.996;2023-06-26T09:07:12;8.27;;;7.53;;
12880;SDS011;6508;53.786;9.996;2023-06-26T09:09:41;8.35;;;7.72;;
12880;SDS011;6508;53.786;9.996;2023-06-26T09:12:09;8.18;;;7.57;;
12880;SDS011;6508;53.786;9.996;2023-06-26T09:14:38;8.32;;;7.75;;
12880;SDS011;6508;53.786;9.996;2023-06-26T09:17:06;9.57;;;8.73;;
12880;SDS011;6508;53.786;9.996;2023-06-26T09:19:35;9.07;;;8.30;;
12880;SDS011;6508;53.786;9.996;2023-06-26T09:22:05;9.40;;;8.80;;
12880;SDS011;6508;53.786;9.996;2023-06-26T09:24:40;9.18;;;8.48;;
12880;SDS011;6508;53.786;9.996;2023-06-26T09:27:08;9.45;;;8.75;;
12880;SDS011;6508;53.786;9.996;2023-06-26T09:29:36;10.52;;;9.48;;
12880;SDS011;6508;53.786;9.996;2023-06-26T09:32:07;10.98;;;10.10;;
12880;SDS011;6508;53.786;9.996;2023-06-26T09:34:35;11.35;;;9.70;;
12880;SDS011;6508;53.786;9.996;2023-06-26T09:37:03;12.07;;;9.95;;
12880;SDS011;6508;53.786;9.996;2023-06-26T09:39:33;12.38;;;11.15;;
12880;SDS011;6508;53.786;9.996;2023-06-26T09:42:00;12.23;;;10.90;;
12880;SDS011;6508;53.786;9.996;2023-06-26T09:44:33;11.43;;;10.43;;
12880;SDS011;6508;53.786;9.996;2023-06-26T09:47:01;9.52;;;8.73;;
12880;SDS011;6508;53.786;9.996;2023-06-26T09:49:30;7.63;;;6.97;;
12880;SDS011;6508;53.786;9.996;2023-06-26T09:51:59;6.20;;;5.72;;
12880;SDS011;6508;53.786;9.996;2023-06-26T09:54:29;6.45;;;5.88;;
12880;SDS011;6508;53.786;9.996;2023-06-26T09:57:06;5.90;;;5.43;;
12880;SDS011;6508;53.786;9.996;2023-06-26T09:59:35;5.75;;;5.32;;
12880;SDS011;6508;53.786;9.996;2023-06-26T10:02:03;6.28;;;5.78;;
12880;SDS011;6508;53.786;9.996;2023-06-26T10:04:32;7.72;;;6.95;;
12880;SDS011;6508;53.786;9.996;2023-06-26T10:07:01;7.40;;;6.80;;
12880;SDS011;6508;53.786;9.996;2023-06-26T10:09:34;7.22;;;6.60;;
12880;SDS011;6508;53.786;9.996;2023-06-26T10:12:09;7.13;;;6.47;;
12880;SDS011;6508;53.786;9.996;2023-06-26T10:14:41;7.18;;;6.45;;
12880;SDS011;6508;53.786;9.996;2023-06-26T10:17:15;10.07;;;8.52;;
12880;SDS011;6508;53.786;9.996;2023-06-26T10:19:44;11.98;;;10.75;;
12880;SDS011;6508;53.786;9.996;2023-06-26T10:22:15;17.63;;;12.70;;
12880;SDS011;6508;53.786;9.996;2023-06-26T10:24:45;16.27;;;10.63;;
12880;SDS011;6508;53.786;9.996;2023-06-26T10:27:17;11.27;;;10.18;;
12880;SDS011;6508;53.786;9.996;2023-06-26T10:29:46;14.07;;;10.68;;
12880;SDS011;6508;53.786;9.996;2023-06-26T10:32:16;13.95;;;11.00;;
12880;SDS011;6508;53.786;9.996;2023-06-26T10:34:45;12.40;;;11.13;;
12880;SDS011;6508;53.786;9.996;2023-06-26T10:37:13;13.13;;;10.82;;
12880;SDS011;6508;53.786;9.996;2023-06-26T10:39:47;11.45;;;10.35;;
12880;SDS011;6508;53.786;9.996;2023-06-26T10:42:17;11.38;;;10.18;;
12880;SDS011;6508;53.786;9.996;2023-06-26T10:44:46;12.05;;;9.25;;
12880;SDS011;6508;53.786;9.996;2023-06-26T10:53:08;8.80;;;8.00;;
12880;SDS011;6508;53.786;9.996;2023-06-26T10:55:41;10.20;;;8.73;;
12880;SDS011;6508;53.786;9.996;2023-06-26T10:58:31;9.57;;;8.63;;
12880;SDS011;6508;53.786;9.996;2023-06-26T11:01:19;10.77;;;9.75;;
12880;SDS011;6508;53.786;9.996;2023-06-26T11:04:06;14.13;;;11.63;;
12880;SDS011;6508;53.786;9.996;2023-06-26T11:06:35;12.32;;;11.05;;
12880;SDS011;6508;53.786;9.996;2023-06-26T11:09:06;16.95;;;13.10;;
12880;SDS011;6508;53.786;9.996;2023-06-26T11:14:34;12.27;;;11.07;;
12880;SDS011;6508;53.786;9.996;2023-06-26T11:17:03;12.10;;;10.73;;
12880;SDS011;6508;53.786;9.996;2023-06-26T11:19:32;11.63;;;10.48;;
12880;SDS011;6508;53.786;9.996;2023-06-26T11:22:03;12.63;;;10.15;;
12880;SDS011;6508;53.786;9.996;2023-06-26T11:24:33;14.68;;;10.80;;
12880;SDS011;6508;53.786;9.996;2023-06-26T11:27:02;13.48;;;9.55;;
12880;SDS011;6508;53.786;9.996;2023-06-26T11:29:32;9.57;;;8.48;;
12880;SDS011;6508;53.786;9.996;2023-06-26T11:32:02;8.07;;;7.20;;
12880;SDS011;6508;53.786;9.996;2023-06-26T11:34:33;11.30;;;6.32;;
12880;SDS011;6508;53.786;9.996;2023-06-26T11:37:04;11.50;;;6.43;;
12880;SDS011;6508;53.786;9.996;2023-06-26T11:39:35;8.05;;;5.65;;
12880;SDS011;6508;53.786;9.996;2023-06-26T11:42:04;6.45;;;4.60;;
12880;SDS011;6508;53.786;9.996;2023-06-26T11:44:35;6.38;;;3.78;;
12880;SDS011;6508;53.786;9.996;2023-06-26T11:47:07;5.82;;;3.15;;
12880;SDS011;6508;53.786;9.996;2023-06-26T11:49:35;4.20;;;2.95;;
12880;SDS011;6508;53.786;9.996;2023-06-26T11:52:03;3.90;;;2.45;;
12880;SDS011;6508;53.786;9.996;2023-06-26T11:54:31;7.05;;;2.95;;
12880;SDS011;6508;53.786;9.996;2023-06-26T11:56:59;3.65;;;2.30;;
12880;SDS011;6508;53.786;9.996;2023-06-26T11:59:34;4.53;;;2.22;;
12880;SDS011;6508;53.786;9.996;2023-06-26T12:02:06;4.47;;;1.98;;
12880;SDS011;6508;53.786;9.996;2023-06-26T12:04:35;5.85;;;2.22;;
12880;SDS011;6508;53.786;9.996;2023-06-26T12:07:05;6.15;;;2.55;;
12880;SDS011;6508;53.786;9.996;2023-06-26T12:09:37;4.00;;;2.30;;
12880;SDS011;6508;53.786;9.996;2023-06-26T12:12:08;2.78;;;2.28;;
12880;SDS011;6508;53.786;9.996;2023-06-26T12:14:37;5.65;;;2.40;;
12880;SDS011;6508;53.786;9.996;2023-06-26T12:17:08;4.20;;;2.65;;
12880;SDS011;6508;53.786;9.996;2023-06-26T12:19:38;3.97;;;2.17;;
12880;SDS011;6508;53.786;9.996;2023-06-26T12:22:07;5.72;;;2.85;;
12880;SDS011;6508;53.786;9.996;2023-06-26T12:24:36;2.95;;;2.40;;
12880;SDS011;6508;53.786;9.996;2023-06-26T12:27:09;2.63;;;2.13;;
12880;SDS011;6508;53.786;9.996;2023-06-26T12:29:39;4.32;;;2.78;;
12880;SDS011;6508;53.786;9.996;2023-06-26T12:32:08;3.10;;;2.78;;
12880;SDS011;6508;53.786;9.996;2023-06-26T12:34:38;3.80;;;2.80;;
12880;SDS011;6508;53.786;9.996;2023-06-26T12:37:07;4.72;;;2.90;;
12880;SDS011;6508;53.786;9.996;2023-06-26T12:39:45;2.97;;;2.70;;
12880;SDS011;6508;53.786;9.996;2023-06-26T12:42:16;3.50;;;2.47;;
12880;SDS011;6508;53.786;9.996;2023-06-26T12:44:45;6.45;;;3.00;;
12880;SDS011;6508;53.786;9.996;2023-06-26T12:47:14;2.78;;;2.47;;
12880;SDS011;6508;53.786;9.996;2023-06-26T12:49:43;4.18;;;2.90;;
12880;SDS011;6508;53.786;9.996;2023-06-26T12:52:12;3.75;;;2.80;;
12880;SDS011;6508;53.786;9.996;2023-06-26T12:54:42;5.88;;;3.42;;
12880;SDS011;6508;53.786;9.996;2023-06-26T12:57:10;4.97;;;3.33;;
12880;SDS011;6508;53.786;9.996;2023-06-26T12:59:40;5.60;;;3.05;;
12880;SDS011;6508;53.786;9.996;2023-06-26T13:02:10;3.90;;;2.58;;
12880;SDS011;6508;53.786;9.996;2023-06-26T13:04:39;2.85;;;2.55;;
12880;SDS011;6508;53.786;9.996;2023-06-26T13:07:07;2.97;;;2.20;;
12880;SDS011;6508;53.786;9.996;2023-06-26T13:09:36;4.03;;;2.50;;
12880;SDS011;6508;53.786;9.996;2023-06-26T13:12:05;3.20;;;2.40;;
12880;SDS011;6508;53.786;9.996;2023-06-26T13:14:35;3.67;;;2.47;;
12880;SDS011;6508;53.786;9.996;2023-06-26T13:17:04;2.50;;;2.10;;
12880;SDS011;6508;53.786;9.996;2023-06-26T13:19:37;4.35;;;2.20;;
12880;SDS011;6508;53.786;9.996;2023-06-26T13:22:05;3.05;;;2.33;;
12880;SDS011;6508;53.786;9.996;2023-06-26T13:24:33;7.38;;;2.60;;
12880;SDS011;6508;53.786;9.996;2023-06-26T13:27:01;2.67;;;2.42;;
12880;SDS011;6508;53.786;9.996;2023-06-26T13:29:30;5.10;;;2.75;;
12880;SDS011;6508;53.786;9.996;2023-06-26T13:31:59;3.20;;;2.30;;
12880;SDS011;6508;53.786;9.996;2023-06-26T13:34:27;5.10;;;2.15;;
12880;SDS011;6508;53.786;9.996;2023-06-26T13:36:57;2.38;;;2.10;;
12880;SDS011;6508;53.786;9.996;2023-06-26T13:39:26;4.97;;;2.70;;
12880;SDS011;6508;53.786;9.996;2023-06-26T13:41:54;2.63;;;2.30;;
12880;SDS011;6508;53.786;9.996;2023-06-26T13:44:23;3.35;;;2.17;;
12880;SDS011;6508;53.786;9.996;2023-06-26T13:47:04;2.92;;;2.10;;
12880;SDS011;6508;53.786;9.996;2023-06-26T13:49:36;2.55;;;2.28;;
12880;SDS011;6508;53.786;9.996;2023-06-26T13:52:05;3.13;;;2.28;;
12880;SDS011;6508;53.786;9.996;2023-06-26T13:54:35;3.42;;;2.00;;
12880;SDS011;6508;53.786;9.996;2023-06-26T13:57:03;2.22;;;2.13;;
12880;SDS011;6508;53.786;9.996;2023-06-26T13:59:32;2.42;;;2.22;;
12880;SDS011;6508;53.786;9.996;2023-06-26T14:02:00;3.30;;;2.00;;
12880;SDS011;6508;53.786;9.996;2023-06-26T14:04:28;2.25;;;2.10;;
12880;SDS011;6508;53.786;9.996;2023-06-26T14:06:56;5.43;;;2.10;;
12880;SDS011;6508;53.786;9.996;2023-06-26T14:09:25;3.60;;;2.03;;
12880;SDS011;6508;53.786;9.996;2023-06-26T14:11:53;3.40;;;2.10;;
12880;SDS011;6508;53.786;9.996;2023-06-26T14:14:21;3.25;;;2.03;;
12880;SDS011;6508;53.786;9.996;2023-06-26T14:16:49;1.80;;;1.70;;
12880;SDS011;6508;53.786;9.996;2023-06-26T14:19:17;4.47;;;2.08;;
12880;SDS011;6508;53.786;9.996;2023-06-26T14:21:45;2.92;;;2.20;;
12880;SDS011;6508;53.786;9.996;2023-06-26T14:24:13;2.30;;;2.13;;
12880;SDS011;6508;53.786;9.996;2023-06-26T14:26:42;3.40;;;2.00;;
12880;SDS011;6508;53.786;9.996;2023-06-26T14:29:10;1.95;;;1.85;;
12880;SDS011;6508;53.786;9.996;2023-06-26T14:31:39;2.13;;;2.03;;
12880;SDS011;6508;53.786;9.996;2023-06-26T14:34:07;4.22;;;2.03;;
12880;SDS011;6508;53.786;9.996;2023-06-26T14:36:35;2.30;;;2.10;;
12880;SDS011;6508;53.786;9.996;2023-06-26T14:39:04;2.00;;;1.90;;
12880;SDS011;6508;53.786;9.996;2023-06-26T14:41:32;2.67;;;2.05;;
12880;SDS011;6508;53.786;9.996;2023-06-26T14:44:02;2.97;;;2.20;;
12880;SDS011;6508;53.786;9.996;2023-06-26T14:46:31;3.58;;;2.30;;
12880;SDS011;6508;53.786;9.996;2023-06-26T14:49:00;1.90;;;1.80;;
12880;SDS011;6508;53.786;9.996;2023-06-26T14:51:28;2.13;;;1.92;;
12880;SDS011;6508;53.786;9.996;2023-06-26T14:53:56;2.40;;;2.20;;
12880;SDS011;6508;53.786;9.996;2023-06-26T14:56:24;2.35;;;2.20;;
12880;SDS011;6508;53.786;9.996;2023-06-26T14:58:51;3.47;;;2.15;;
12880;SDS011;6508;53.786;9.996;2023-06-26T15:01:21;3.10;;;2.80;;
12880;SDS011;6508;53.786;9.996;2023-06-26T15:03:49;2.58;;;2.38;;
12880;SDS011;6508;53.786;9.996;2023-06-26T15:06:17;2.70;;;2.30;;
12880;SDS011;6508;53.786;9.996;2023-06-26T15:08:45;2.78;;;2.53;;
12880;SDS011;6508;53.786;9.996;2023-06-26T15:11:13;3.00;;;2.53;;
12880;SDS011;6508;53.786;9.996;2023-06-26T15:13:41;3.03;;;2.38;;